createdAt,value
2023-05-04T00:03:27.561Z,4.70
2023-05-04T00:13:28.591Z,4.60
2023-05-04T00:23:29.746Z,4.80
2023-05-04T00:33:30.878Z,4.10
2023-05-04T00:43:32.245Z,4.30
2023-05-04T00:53:33.166Z,4.00
2023-05-04T01:03:34.348Z,4.00
2023-05-04T01:13:35.534Z,3.80
2023-05-04T01:23:36.678Z,3.40
2023-05-04T01:33:37.828Z,3.40
2023-05-04T01:43:38.981Z,3.20
2023-05-04T01:53:40.181Z,2.70
2023-05-04T02:03:41.426Z,2.70
2023-05-04T02:13:42.428Z,3.10
2023-05-04T02:23:43.563Z,2.80
2023-05-04T02:33:44.817Z,2.70
2023-05-04T02:43:45.666Z,2.70
2023-05-04T03:03:48.114Z,2.50
2023-05-04T03:13:48.881Z,2.10
2023-05-04T03:23:49.977Z,2.60
2023-05-04T03:33:51.087Z,2.20
2023-05-04T03:43:52.303Z,2.60
2023-05-04T03:53:53.508Z,2.50
2023-05-04T04:03:54.550Z,2.40
2023-05-04T04:13:55.573Z,2.60
2023-05-04T04:23:56.469Z,2.30
2023-05-04T04:33:57.694Z,2.00
2023-05-04T04:43:58.881Z,2.20
2023-05-04T04:53:59.759Z,2.20
2023-05-04T05:04:00.876Z,2.00
2023-05-04T05:34:04.616Z,2.00
2023-05-04T05:44:05.956Z,2.00
2023-05-04T05:54:07.400Z,1.80
2023-05-04T06:04:09.163Z,1.80
2023-05-04T06:14:10.998Z,2.10
2023-05-04T06:24:12.411Z,1.90
2023-05-04T06:34:13.894Z,1.90
2023-05-04T06:44:15.482Z,2.00
2023-05-04T06:54:17.015Z,2.30
2023-05-04T07:04:18.379Z,2.10
2023-05-04T07:14:20.227Z,2.00
2023-05-04T07:34:33.894Z,2.20
2023-05-04T07:44:26.335Z,1.90
2023-05-04T08:04:30.557Z,2.20
2023-05-04T08:14:32.952Z,2.30
2023-05-04T08:24:35.143Z,2.30
2023-05-04T08:34:36.873Z,2.30
2023-05-04T08:44:38.727Z,2.20
2023-05-04T08:54:40.091Z,2.50
2023-05-04T09:04:41.745Z,2.70
2023-05-04T09:14:43.536Z,2.30
2023-05-04T09:24:44.997Z,2.30
2023-05-04T09:34:46.597Z,2.30
2023-05-04T09:44:48.357Z,3.90
2023-05-04T09:54:50.066Z,2.50
2023-05-04T10:04:51.942Z,2.50
2023-05-04T10:14:53.667Z,2.60
2023-05-04T10:24:55.602Z,2.60
2023-05-04T10:34:57.356Z,2.50
2023-05-04T10:44:58.819Z,2.60
2023-05-04T10:55:00.603Z,2.30
2023-05-04T11:05:02.715Z,2.70
2023-05-04T11:15:04.659Z,2.50
2023-05-04T11:25:06.225Z,2.80
2023-05-04T11:35:08.335Z,3.00
2023-05-04T12:05:12.837Z,3.10
2023-05-04T12:15:14.656Z,3.70
2023-05-04T12:25:16.056Z,3.00
2023-05-04T12:35:17.957Z,2.90
2023-05-04T12:45:19.660Z,3.10
2023-05-04T12:55:23.455Z,3.10
2023-05-04T13:05:23.290Z,3.30
2023-05-04T13:15:25.292Z,2.90
2023-05-04T13:25:26.772Z,3.10
2023-05-04T13:35:28.842Z,2.80
2023-05-04T13:45:30.305Z,2.80
2023-05-04T13:55:32.067Z,3.00
2023-05-04T14:05:33.967Z,2.90
2023-05-04T14:15:35.772Z,3.00
2023-05-04T14:25:37.642Z,3.00
2023-05-04T14:35:39.434Z,3.10
2023-05-04T14:45:41.254Z,3.40
2023-05-04T14:55:42.748Z,3.50
2023-05-04T15:05:44.695Z,3.70
2023-05-04T15:15:46.264Z,3.70
2023-05-04T15:25:47.934Z,3.90
2023-05-04T15:35:49.673Z,4.20
2023-05-04T15:45:51.371Z,3.90
2023-05-04T15:55:53.219Z,3.60
2023-05-04T16:05:54.822Z,4.20
2023-05-04T16:25:58.446Z,4.10
2023-05-04T16:35:59.957Z,4.70
2023-05-04T16:46:01.355Z,4.30
2023-05-04T16:56:02.894Z,4.10
2023-05-04T17:06:04.473Z,4.30
2023-05-04T17:16:06.064Z,3.90
2023-05-04T17:26:07.588Z,4.50
2023-05-04T17:36:09.152Z,4.30
2023-05-04T17:46:10.830Z,3.90
2023-05-04T17:56:12.314Z,3.70
2023-05-04T18:06:13.801Z,3.90
2023-05-04T18:16:15.324Z,4.00
2023-05-04T18:26:16.902Z,3.80
2023-05-04T18:36:18.453Z,3.70
2023-05-04T18:46:19.955Z,3.70
2023-05-04T18:56:21.537Z,4.00
2023-05-04T19:06:22.870Z,3.60
2023-05-04T19:16:24.371Z,3.70
2023-05-04T19:26:25.530Z,3.80
2023-05-04T19:36:26.995Z,3.70
2023-05-04T19:46:28.565Z,3.90
2023-05-04T19:56:29.825Z,7.40
2023-05-04T20:06:31.129Z,7.10
2023-05-04T20:16:32.534Z,5.80
2023-05-04T20:26:33.636Z,4.90
2023-05-04T20:46:36.025Z,5.10
2023-05-04T20:56:37.173Z,4.70
2023-05-04T21:06:38.474Z,5.00
2023-05-04T21:16:39.586Z,4.30
2023-05-04T21:26:41.149Z,3.70
2023-05-04T21:36:42.063Z,3.40
2023-05-04T21:46:43.331Z,2.80
2023-05-04T21:56:44.411Z,2.80
2023-05-04T22:06:45.585Z,3.00
2023-05-04T22:16:46.924Z,2.60
2023-05-04T22:26:47.946Z,2.60
2023-05-04T22:36:49.115Z,2.60
2023-05-04T22:46:50.267Z,2.60
2023-05-04T22:56:51.449Z,2.70
2023-05-04T23:06:52.878Z,2.60
2023-05-04T23:16:53.710Z,2.60
2023-05-04T23:26:55.189Z,2.40
2023-05-04T23:36:56.004Z,2.70
2023-05-04T23:46:57.129Z,2.10
2023-05-04T23:56:58.558Z,2.30
